sensor_id;sensor_type;location;lat;lon;timestamp;P1;durP1;ratioP1;P2;durP2;ratioP2
48897;SDS011;34713;50.038;20.000;2023-09-07T00:01:00;12.60;;;6.70;;
48897;SDS011;34713;50.038;20.000;2023-09-07T00:03:36;11.20;;;7.00;;
48897;SDS011;34713;50.038;20.000;2023-09-07T00:06:07;11.20;;;7.10;;
48897;SDS011;34713;50.038;20.000;2023-09-07T00:08:50;14.30;;;6.90;;
48897;SDS011;34713;50.038;20.000;2023-09-07T00:11:32;12.40;;;7.20;;
48897;SDS011;34713;50.038;20.000;2023-09-07T00:14:05;10.10;;;6.70;;
48897;SDS011;34713;50.038;20.000;2023-09-07T00:16:41;9.50;;;7.40;;
48897;SDS011;34713;50.038;20.000;2023-09-07T00:19:18;12.00;;;7.40;;
48897;SDS011;34713;50.038;20.000;2023-09-07T00:21:56;11.30;;;7.40;;
48897;SDS011;34713;50.038;20.000;2023-09-07T00:24:23;13.00;;;6.90;;
48897;SDS011;34713;50.038;20.000;2023-09-07T00:26:50;13.90;;;6.80;;
48897;SDS011;34713;50.038;20.000;2023-09-07T00:29:46;11.80;;;6.90;;
48897;SDS011;34713;50.038;20.000;2023-09-07T00:32:16;16.80;;;8.00;;
48897;SDS011;34713;50.038;20.000;2023-09-07T00:34:43;12.50;;;7.40;;
48897;SDS011;34713;50.038;20.000;2023-09-07T00:37:12;10.30;;;7.10;;
48897;SDS011;34713;50.038;20.000;2023-09-07T00:39:39;15.30;;;7.10;;
48897;SDS011;34713;50.038;20.000;2023-09-07T00:45:26;12.40;;;7.10;;
48897;SDS011;34713;50.038;20.000;2023-09-07T00:48:20;16.00;;;7.10;;
48897;SDS011;34713;50.038;20.000;2023-09-07T00:51:21;13.70;;;6.60;;
48897;SDS011;34713;50.038;20.000;2023-09-07T00:57:13;15.70;;;7.70;;
48897;SDS011;34713;50.038;20.000;2023-09-07T01:02:56;12.40;;;7.90;;
48897;SDS011;34713;50.038;20.000;2023-09-07T01:05:23;15.90;;;7.80;;
48897;SDS011;34713;50.038;20.000;2023-09-07T01:08:03;17.80;;;7.10;;
48897;SDS011;34713;50.038;20.000;2023-09-07T01:10:40;12.70;;;7.20;;
48897;SDS011;34713;50.038;20.000;2023-09-07T01:14:08;13.40;;;7.60;;
48897;SDS011;34713;50.038;20.000;2023-09-07T01:16:40;10.50;;;6.80;;
48897;SDS011;34713;50.038;20.000;2023-09-07T01:29:22;14.90;;;7.30;;
48897;SDS011;34713;50.038;20.000;2023-09-07T01:41:40;12.60;;;6.40;;
48897;SDS011;34713;50.038;20.000;2023-09-07T01:44:23;14.00;;;7.20;;
48897;SDS011;34713;50.038;20.000;2023-09-07T01:47:10;14.70;;;7.60;;
48897;SDS011;34713;50.038;20.000;2023-09-07T01:49:50;14.70;;;6.80;;
48897;SDS011;34713;50.038;20.000;2023-09-07T01:52:25;11.10;;;7.30;;
48897;SDS011;34713;50.038;20.000;2023-09-07T01:55:04;13.30;;;7.70;;
48897;SDS011;34713;50.038;20.000;2023-09-07T01:57:51;14.00;;;6.60;;
48897;SDS011;34713;50.038;20.000;2023-09-07T02:00:27;14.20;;;7.10;;
48897;SDS011;34713;50.038;20.000;2023-09-07T02:02:57;11.30;;;6.60;;
48897;SDS011;34713;50.038;20.000;2023-09-07T02:05:34;16.90;;;7.60;;
48897;SDS011;34713;50.038;20.000;2023-09-07T02:08:00;14.40;;;8.00;;
48897;SDS011;34713;50.038;20.000;2023-09-07T02:10:30;15.00;;;6.80;;
48897;SDS011;34713;50.038;20.000;2023-09-07T02:12:57;12.50;;;7.40;;
48897;SDS011;34713;50.038;20.000;2023-09-07T02:15:24;14.70;;;6.60;;
48897;SDS011;34713;50.038;20.000;2023-09-07T02:17:57;11.40;;;7.10;;
48897;SDS011;34713;50.038;20.000;2023-09-07T02:20:27;12.20;;;8.10;;
48897;SDS011;34713;50.038;20.000;2023-09-07T02:22:56;11.20;;;7.20;;
48897;SDS011;34713;50.038;20.000;2023-09-07T02:25:26;12.70;;;7.60;;
48897;SDS011;34713;50.038;20.000;2023-09-07T02:31:16;12.00;;;7.70;;
48897;SDS011;34713;50.038;20.000;2023-09-07T02:34:24;13.30;;;7.60;;
48897;SDS011;34713;50.038;20.000;2023-09-07T02:41:10;13.90;;;7.50;;
48897;SDS011;34713;50.038;20.000;2023-09-07T03:03:24;16.00;;;8.30;;
48897;SDS011;34713;50.038;20.000;2023-09-07T03:05:54;11.30;;;7.20;;
48897;SDS011;34713;50.038;20.000;2023-09-07T03:12:49;12.90;;;7.80;;
48897;SDS011;34713;50.038;20.000;2023-09-07T03:15:29;10.80;;;7.00;;
48897;SDS011;34713;50.038;20.000;2023-09-07T03:21:29;16.70;;;7.80;;
48897;SDS011;34713;50.038;20.000;2023-09-07T03:23:56;10.80;;;7.40;;
48897;SDS011;34713;50.038;20.000;2023-09-07T03:26:45;14.80;;;7.00;;
48897;SDS011;34713;50.038;20.000;2023-09-07T03:32:41;12.70;;;7.40;;
48897;SDS011;34713;50.038;20.000;2023-09-07T03:35:08;11.70;;;7.80;;
48897;SDS011;34713;50.038;20.000;2023-09-07T03:44:21;12.70;;;7.70;;
48897;SDS011;34713;50.038;20.000;2023-09-07T03:46:46;14.60;;;8.10;;
48897;SDS011;34713;50.038;20.000;2023-09-07T03:49:39;10.70;;;7.00;;
48897;SDS011;34713;50.038;20.000;2023-09-07T03:55:44;11.00;;;8.10;;
48897;SDS011;34713;50.038;20.000;2023-09-07T03:58:11;14.90;;;8.10;;
48897;SDS011;34713;50.038;20.000;2023-09-07T04:01:27;12.00;;;7.50;;
48897;SDS011;34713;50.038;20.000;2023-09-07T04:13:41;15.10;;;7.50;;
48897;SDS011;34713;50.038;20.000;2023-09-07T04:22:51;14.20;;;7.30;;
48897;SDS011;34713;50.038;20.000;2023-09-07T04:25:23;12.80;;;7.70;;
48897;SDS011;34713;50.038;20.000;2023-09-07T04:37:38;17.30;;;8.70;;
48897;SDS011;34713;50.038;20.000;2023-09-07T04:40:28;15.50;;;7.70;;
48897;SDS011;34713;50.038;20.000;2023-09-07T04:42:55;13.20;;;8.00;;
48897;SDS011;34713;50.038;20.000;2023-09-07T04:45:24;19.10;;;8.70;;
48897;SDS011;34713;50.038;20.000;2023-09-07T04:51:28;17.70;;;8.20;;
48897;SDS011;34713;50.038;20.000;2023-09-07T04:57:18;12.20;;;8.00;;
48897;SDS011;34713;50.038;20.000;2023-09-07T04:59:55;29.00;;;17.80;;
48897;SDS011;34713;50.038;20.000;2023-09-07T05:02:22;46.50;;;25.80;;
48897;SDS011;34713;50.038;20.000;2023-09-07T05:04:56;41.40;;;22.90;;
48897;SDS011;34713;50.038;20.000;2023-09-07T05:07:37;41.50;;;23.90;;
48897;SDS011;34713;50.038;20.000;2023-09-07T05:10:04;42.60;;;25.40;;
48897;SDS011;34713;50.038;20.000;2023-09-07T05:12:44;43.40;;;27.20;;
48897;SDS011;34713;50.038;20.000;2023-09-07T05:21:53;45.00;;;27.30;;
48897;SDS011;34713;50.038;20.000;2023-09-07T05:24:23;48.30;;;27.10;;
48897;SDS011;34713;50.038;20.000;2023-09-07T05:26:53;45.60;;;26.10;;
48897;SDS011;34713;50.038;20.000;2023-09-07T05:35:58;44.50;;;20.10;;
48897;SDS011;34713;50.038;20.000;2023-09-07T05:38:51;48.90;;;20.50;;
48897;SDS011;34713;50.038;20.000;2023-09-07T05:51:26;61.00;;;19.00;;
48897;SDS011;34713;50.038;20.000;2023-09-07T05:54:42;57.80;;;21.10;;
48897;SDS011;34713;50.038;20.000;2023-09-07T05:57:49;52.50;;;19.60;;
48897;SDS011;34713;50.038;20.000;2023-09-07T06:07:10;38.20;;;21.50;;
48897;SDS011;34713;50.038;20.000;2023-09-07T06:13:16;40.70;;;25.60;;
48897;SDS011;34713;50.038;20.000;2023-09-07T06:16:13;43.70;;;27.10;;
48897;SDS011;34713;50.038;20.000;2023-09-07T06:25:23;39.10;;;25.00;;
48897;SDS011;34713;50.038;20.000;2023-09-07T06:31:44;27.40;;;20.60;;
48897;SDS011;34713;50.038;20.000;2023-09-07T06:34:42;27.00;;;16.20;;
48897;SDS011;34713;50.038;20.000;2023-09-07T06:37:49;18.20;;;14.40;;
48897;SDS011;34713;50.038;20.000;2023-09-07T06:40:18;18.80;;;12.60;;
48897;SDS011;34713;50.038;20.000;2023-09-07T06:42:50;14.90;;;11.20;;
48897;SDS011;34713;50.038;20.000;2023-09-07T06:45:17;16.40;;;9.80;;
48897;SDS011;34713;50.038;20.000;2023-09-07T06:47:55;14.80;;;9.20;;
48897;SDS011;34713;50.038;20.000;2023-09-07T06:50:47;19.30;;;8.60;;
48897;SDS011;34713;50.038;20.000;2023-09-07T06:56:16;10.00;;;8.00;;
48897;SDS011;34713;50.038;20.000;2023-09-07T06:58:52;10.10;;;7.70;;
48897;SDS011;34713;50.038;20.000;2023-09-07T07:01:23;11.50;;;6.60;;
48897;SDS011;34713;50.038;20.000;2023-09-07T07:04:10;10.30;;;6.50;;
48897;SDS011;34713;50.038;20.000;2023-09-07T07:06:40;8.60;;;6.30;;
48897;SDS011;34713;50.038;20.000;2023-09-07T07:15:11;9.10;;;6.60;;
48897;SDS011;34713;50.038;20.000;2023-09-07T07:18:01;8.70;;;7.90;;
48897;SDS011;34713;50.038;20.000;2023-09-07T07:24:12;9.30;;;8.20;;
48897;SDS011;34713;50.038;20.000;2023-09-07T07:26:41;12.20;;;8.10;;
48897;SDS011;34713;50.038;20.000;2023-09-07T07:29:08;11.60;;;8.90;;
48897;SDS011;34713;50.038;20.000;2023-09-07T07:31:39;13.00;;;9.20;;
48897;SDS011;34713;50.038;20.000;2023-09-07T07:34:06;12.30;;;9.30;;
48897;SDS011;34713;50.038;20.000;2023-09-07T07:36:33;11.60;;;8.60;;
48897;SDS011;34713;50.038;20.000;2023-09-07T07:39:00;12.30;;;9.30;;
48897;SDS011;34713;50.038;20.000;2023-09-07T07:41:32;11.40;;;9.00;;
48897;SDS011;34713;50.038;20.000;2023-09-07T07:44:07;16.00;;;9.20;;
48897;SDS011;34713;50.038;20.000;2023-09-07T07:46:35;15.30;;;9.70;;
48897;SDS011;34713;50.038;20.000;2023-09-07T07:49:22;13.30;;;9.10;;
48897;SDS011;34713;50.038;20.000;2023-09-07T07:51:49;12.60;;;8.70;;
48897;SDS011;34713;50.038;20.000;2023-09-07T07:54:16;10.70;;;8.80;;
48897;SDS011;34713;50.038;20.000;2023-09-07T08:03:13;10.10;;;8.20;;
48897;SDS011;34713;50.038;20.000;2023-09-07T08:12:37;11.50;;;8.50;;
48897;SDS011;34713;50.038;20.000;2023-09-07T08:15:07;13.90;;;10.70;;
48897;SDS011;34713;50.038;20.000;2023-09-07T08:17:37;14.90;;;10.60;;
48897;SDS011;34713;50.038;20.000;2023-09-07T08:20:04;14.10;;;10.40;;
48897;SDS011;34713;50.038;20.000;2023-09-07T08:22:36;12.40;;;9.50;;
48897;SDS011;34713;50.038;20.000;2023-09-07T08:25:07;14.50;;;11.40;;
48897;SDS011;34713;50.038;20.000;2023-09-07T08:27:48;14.20;;;9.40;;
48897;SDS011;34713;50.038;20.000;2023-09-07T08:30:23;12.00;;;8.50;;
48897;SDS011;34713;50.038;20.000;2023-09-07T08:33:10;13.90;;;9.80;;
48897;SDS011;34713;50.038;20.000;2023-09-07T08:35:37;13.40;;;9.60;;
48897;SDS011;34713;50.038;20.000;2023-09-07T08:41:23;11.80;;;8.50;;
48897;SDS011;34713;50.038;20.000;2023-09-07T08:43:51;13.50;;;9.60;;
48897;SDS011;34713;50.038;20.000;2023-09-07T08:50:18;11.60;;;8.00;;
48897;SDS011;34713;50.038;20.000;2023-09-07T09:13:10;7.80;;;6.30;;
48897;SDS011;34713;50.038;20.000;2023-09-07T09:19:01;11.20;;;5.70;;
48897;SDS011;34713;50.038;20.000;2023-09-07T09:28:33;12.50;;;6.00;;
48897;SDS011;34713;50.038;20.000;2023-09-07T09:31:20;8.40;;;6.10;;
48897;SDS011;34713;50.038;20.000;2023-09-07T09:34:13;8.40;;;5.50;;
48897;SDS011;34713;50.038;20.000;2023-09-07T09:37:14;6.80;;;5.00;;
48897;SDS011;34713;50.038;20.000;2023-09-07T10:23:41;7.00;;;4.30;;
48897;SDS011;34713;50.038;20.000;2023-09-07T10:30:14;7.10;;;5.00;;
48897;SDS011;34713;50.038;20.000;2023-09-07T10:53:33;6.80;;;4.40;;
48897;SDS011;34713;50.038;20.000;2023-09-07T11:00:15;6.10;;;4.10;;
48897;SDS011;34713;50.038;20.000;2023-09-07T11:09:55;6.40;;;4.00;;
48897;SDS011;34713;50.038;20.000;2023-09-07T11:26:39;6.20;;;3.70;;
48897;SDS011;34713;50.038;20.000;2023-09-07T11:29:49;7.10;;;3.90;;
48897;SDS011;34713;50.038;20.000;2023-09-07T11:33:06;5.60;;;3.70;;
48897;SDS011;34713;50.038;20.000;2023-09-07T11:39:18;5.20;;;4.10;;
48897;SDS011;34713;50.038;20.000;2023-09-07T11:45:43;5.30;;;3.40;;
48897;SDS011;34713;50.038;20.000;2023-09-07T11:48:55;4.40;;;3.20;;
48897;SDS011;34713;50.038;20.000;2023-09-07T11:58:26;9.30;;;3.60;;
48897;SDS011;34713;50.038;20.000;2023-09-07T12:01:55;6.30;;;3.60;;
48897;SDS011;34713;50.038;20.000;2023-09-07T12:07:55;5.00;;;3.30;;
48897;SDS011;34713;50.038;20.000;2023-09-07T12:28:00;6.40;;;3.30;;
48897;SDS011;34713;50.038;20.000;2023-09-07T12:31:10;6.90;;;3.60;;
48897;SDS011;34713;50.038;20.000;2023-09-07T12:40:16;5.40;;;3.30;;
48897;SDS011;34713;50.038;20.000;2023-09-07T12:43:11;9.60;;;3.80;;
48897;SDS011;34713;50.038;20.000;2023-09-07T12:46:17;5.00;;;3.20;;
48897;SDS011;34713;50.038;20.000;2023-09-07T12:49:04;6.30;;;3.60;;
48897;SDS011;34713;50.038;20.000;2023-09-07T12:52:11;6.80;;;3.30;;
48897;SDS011;34713;50.038;20.000;2023-09-07T12:54:41;10.10;;;3.60;;
48897;SDS011;34713;50.038;20.000;2023-09-07T13:00:44;8.40;;;4.10;;
48897;SDS011;34713;50.038;20.000;2023-09-07T13:10:08;7.10;;;3.40;;
48897;SDS011;34713;50.038;20.000;2023-09-07T13:19:39;5.20;;;3.90;;
48897;SDS011;34713;50.038;20.000;2023-09-07T13:25:36;5.70;;;3.50;;
48897;SDS011;34713;50.038;20.000;2023-09-07T13:28:23;5.50;;;3.80;;
48897;SDS011;34713;50.038;20.000;2023-09-07T13:57:27;5.20;;;2.90;;
48897;SDS011;34713;50.038;20.000;2023-09-07T14:03:26;4.30;;;3.10;;
48897;SDS011;34713;50.038;20.000;2023-09-07T14:09:37;6.30;;;3.10;;
48897;SDS011;34713;50.038;20.000;2023-09-07T14:12:48;4.20;;;3.10;;
48897;SDS011;34713;50.038;20.000;2023-09-07T14:15:24;7.80;;;3.30;;
48897;SDS011;34713;50.038;20.000;2023-09-07T14:17:51;13.30;;;3.20;;
48897;SDS011;34713;50.038;20.000;2023-09-07T14:20:26;4.90;;;3.40;;
48897;SDS011;34713;50.038;20.000;2023-09-07T14:22:56;5.30;;;3.30;;
48897;SDS011;34713;50.038;20.000;2023-09-07T14:37:51;7.40;;;3.30;;
48897;SDS011;34713;50.038;20.000;2023-09-07T14:40:50;5.50;;;3.70;;
48897;SDS011;34713;50.038;20.000;2023-09-07T14:53:45;4.80;;;3.20;;
48897;SDS011;34713;50.038;20.000;2023-09-07T14:56:15;6.30;;;3.00;;
48897;SDS011;34713;50.038;20.000;2023-09-07T14:58:47;4.20;;;3.00;;
48897;SDS011;34713;50.038;20.000;2023-09-07T15:01:17;4.90;;;3.30;;
48897;SDS011;34713;50.038;20.000;2023-09-07T15:03:53;6.70;;;2.70;;
48897;SDS011;34713;50.038;20.000;2023-09-07T15:09:21;5.40;;;3.00;;
48897;SDS011;34713;50.038;20.000;2023-09-07T15:11:48;4.20;;;2.90;;
48897;SDS011;34713;50.038;20.000;2023-09-07T15:21:09;6.50;;;3.30;;
48897;SDS011;34713;50.038;20.000;2023-09-07T15:24:31;4.90;;;3.10;;
48897;SDS011;34713;50.038;20.000;2023-09-07T15:30:00;3.60;;;3.00;;
48897;SDS011;34713;50.038;20.000;2023-09-07T15:32:42;5.30;;;2.90;;
48897;SDS011;34713;50.038;20.000;2023-09-07T15:35:34;6.90;;;3.30;;
48897;SDS011;34713;50.038;20.000;2023-09-07T15:38:14;8.40;;;3.90;;
48897;SDS011;34713;50.038;20.000;2023-09-07T15:41:15;5.40;;;3.00;;
48897;SDS011;34713;50.038;20.000;2023-09-07T15:52:56;8.40;;;3.70;;
48897;SDS011;34713;50.038;20.000;2023-09-07T15:55:25;5.80;;;3.30;;
48897;SDS011;34713;50.038;20.000;2023-09-07T16:07:42;7.10;;;3.20;;
48897;SDS011;34713;50.038;20.000;2023-09-07T16:10:13;6.90;;;3.10;;
48897;SDS011;34713;50.038;20.000;2023-09-07T16:28:48;5.00;;;3.40;;
48897;SDS011;34713;50.038;20.000;2023-09-07T16:31:18;6.00;;;3.50;;
48897;SDS011;34713;50.038;20.000;2023-09-07T16:36:46;5.50;;;3.90;;
48897;SDS011;34713;50.038;20.000;2023-09-07T16:39:13;10.70;;;4.10;;
48897;SDS011;34713;50.038;20.000;2023-09-07T16:41:40;6.80;;;3.70;;
48897;SDS011;34713;50.038;20.000;2023-09-07T16:44:28;6.00;;;3.90;;
48897;SDS011;34713;50.038;20.000;2023-09-07T16:46:54;6.80;;;3.50;;
48897;SDS011;34713;50.038;20.000;2023-09-07T16:49:23;4.80;;;3.50;;
48897;SDS011;34713;50.038;20.000;2023-09-07T16:51:50;6.10;;;3.60;;
48897;SDS011;34713;50.038;20.000;2023-09-07T16:54:17;5.90;;;3.60;;
48897;SDS011;34713;50.038;20.000;2023-09-07T16:56:44;8.40;;;3.90;;
48897;SDS011;34713;50.038;20.000;2023-09-07T16:59:13;5.80;;;3.80;;
48897;SDS011;34713;50.038;20.000;2023-09-07T17:01:41;5.10;;;3.80;;
48897;SDS011;34713;50.038;20.000;2023-09-07T17:04:08;7.30;;;3.70;;
48897;SDS011;34713;50.038;20.000;2023-09-07T17:06:38;4.40;;;3.40;;
48897;SDS011;34713;50.038;20.000;2023-09-07T17:09:05;4.60;;;3.30;;
48897;SDS011;34713;50.038;20.000;2023-09-07T17:11:32;6.40;;;3.60;;
48897;SDS011;34713;50.038;20.000;2023-09-07T17:14:01;4.50;;;3.30;;
48897;SDS011;34713;50.038;20.000;2023-09-07T17:16:29;6.20;;;3.90;;
48897;SDS011;34713;50.038;20.000;2023-09-07T17:18:56;5.50;;;3.70;;
48897;SDS011;34713;50.038;20.000;2023-09-07T17:21:23;8.20;;;3.60;;
48897;SDS011;34713;50.038;20.000;2023-09-07T17:23:50;6.30;;;4.00;;
48897;SDS011;34713;50.038;20.000;2023-09-07T17:26:17;7.70;;;4.20;;
48897;SDS011;34713;50.038;20.000;2023-09-07T17:28:44;8.80;;;4.40;;
48897;SDS011;34713;50.038;20.000;2023-09-07T17:31:16;7.80;;;4.00;;
48897;SDS011;34713;50.038;20.000;2023-09-07T17:33:45;6.70;;;3.80;;
48897;SDS011;34713;50.038;20.000;2023-09-07T17:36:15;6.00;;;4.40;;
48897;SDS011;34713;50.038;20.000;2023-09-07T17:38:45;5.40;;;3.90;;
48897;SDS011;34713;50.038;20.000;2023-09-07T17:41:13;7.30;;;4.80;;
48897;SDS011;34713;50.038;20.000;2023-09-07T17:43:44;6.20;;;4.10;;
48897;SDS011;34713;50.038;20.000;2023-09-07T17:46:15;6.80;;;3.80;;
48897;SDS011;34713;50.038;20.000;2023-09-07T17:48:41;7.00;;;4.00;;
48897;SDS011;34713;50.038;20.000;2023-09-07T17:51:09;8.10;;;4.70;;
48897;SDS011;34713;50.038;20.000;2023-09-07T17:53:35;6.10;;;4.40;;
48897;SDS011;34713;50.038;20.000;2023-09-07T17:56:05;6.30;;;3.90;;
48897;SDS011;34713;50.038;20.000;2023-09-07T17:58:37;5.50;;;4.10;;
48897;SDS011;34713;50.038;20.000;2023-09-07T18:01:10;7.70;;;4.10;;
48897;SDS011;34713;50.038;20.000;2023-09-07T18:27:33;7.40;;;4.90;;
48897;SDS011;34713;50.038;20.000;2023-09-07T18:30:11;7.10;;;4.40;;
48897;SDS011;34713;50.038;20.000;2023-09-07T18:32:43;16.00;;;5.30;;
48897;SDS011;34713;50.038;20.000;2023-09-07T18:35:13;11.40;;;5.30;;
48897;SDS011;34713;50.038;20.000;2023-09-07T18:37:50;14.50;;;6.00;;
48897;SDS011;34713;50.038;20.000;2023-09-07T18:40:43;12.80;;;6.10;;
48897;SDS011;34713;50.038;20.000;2023-09-07T18:54:07;13.30;;;6.50;;
48897;SDS011;34713;50.038;20.000;2023-09-07T19:00:09;11.20;;;7.20;;
48897;SDS011;34713;50.038;20.000;2023-09-07T19:06:45;14.80;;;7.60;;
48897;SDS011;34713;50.038;20.000;2023-09-07T19:09:53;12.20;;;7.00;;
48897;SDS011;34713;50.038;20.000;2023-09-07T19:12:22;13.00;;;7.10;;
48897;SDS011;34713;50.038;20.000;2023-09-07T19:35:21;13.60;;;8.00;;
48897;SDS011;34713;50.038;20.000;2023-09-07T19:41:05;12.80;;;8.10;;
48897;SDS011;34713;50.038;20.000;2023-09-07T19:43:55;14.50;;;8.10;;
48897;SDS011;34713;50.038;20.000;2023-09-07T19:49:32;12.90;;;7.90;;
48897;SDS011;34713;50.038;20.000;2023-09-07T19:51:59;10.40;;;8.40;;
48897;SDS011;34713;50.038;20.000;2023-09-07T20:05:11;16.00;;;8.00;;
48897;SDS011;34713;50.038;20.000;2023-09-07T20:13:49;12.90;;;8.20;;
48897;SDS011;34713;50.038;20.000;2023-09-07T20:16:15;16.30;;;8.10;;
48897;SDS011;34713;50.038;20.000;2023-09-07T20:18:45;14.60;;;9.30;;
48897;SDS011;34713;50.038;20.000;2023-09-07T20:21:21;12.80;;;8.90;;
48897;SDS011;34713;50.038;20.000;2023-09-07T20:27:50;16.90;;;9.20;;
48897;SDS011;34713;50.038;20.000;2023-09-07T20:36:29;14.40;;;8.70;;
48897;SDS011;34713;50.038;20.000;2023-09-07T20:38:58;17.80;;;9.70;;
48897;SDS011;34713;50.038;20.000;2023-09-07T20:41:36;16.10;;;9.50;;
48897;SDS011;34713;50.038;20.000;2023-09-07T20:44:12;19.30;;;9.60;;
48897;SDS011;34713;50.038;20.000;2023-09-07T20:46:49;18.40;;;10.50;;
48897;SDS011;34713;50.038;20.000;2023-09-07T20:49:26;17.40;;;9.20;;
48897;SDS011;34713;50.038;20.000;2023-09-07T20:51:55;16.70;;;10.80;;
48897;SDS011;34713;50.038;20.000;2023-09-07T20:54:25;15.60;;;9.40;;
48897;SDS011;34713;50.038;20.000;2023-09-07T20:57:15;14.10;;;9.50;;
48897;SDS011;34713;50.038;20.000;2023-09-07T20:59:47;17.70;;;10.00;;
48897;SDS011;34713;50.038;20.000;2023-09-07T21:02:14;20.30;;;9.70;;
48897;SDS011;34713;50.038;20.000;2023-09-07T21:07:45;14.50;;;9.30;;
48897;SDS011;34713;50.038;20.000;2023-09-07T21:10:44;15.60;;;8.80;;
48897;SDS011;34713;50.038;20.000;2023-09-07T21:13:38;18.80;;;8.60;;
48897;SDS011;34713;50.038;20.000;2023-09-07T21:28:50;14.00;;;8.70;;
48897;SDS011;34713;50.038;20.000;2023-09-07T21:35:30;18.90;;;9.50;;
48897;SDS011;34713;50.038;20.000;2023-09-07T21:44:58;19.60;;;9.60;;
48897;SDS011;34713;50.038;20.000;2023-09-07T21:47:28;14.60;;;10.10;;
48897;SDS011;34713;50.038;20.000;2023-09-07T21:56:14;13.80;;;10.40;;
48897;SDS011;34713;50.038;20.000;2023-09-07T22:05:37;14.30;;;10.30;;
48897;SDS011;34713;50.038;20.000;2023-09-07T22:21:44;14.40;;;9.70;;
48897;SDS011;34713;50.038;20.000;2023-09-07T22:24:53;16.40;;;10.00;;
48897;SDS011;34713;50.038;20.000;2023-09-07T22:28:04;14.20;;;9.40;;
48897;SDS011;34713;50.038;20.000;2023-09-07T22:31:14;16.30;;;9.80;;
48897;SDS011;34713;50.038;20.000;2023-09-07T22:33:55;18.60;;;10.80;;
48897;SDS011;34713;50.038;20.000;2023-09-07T22:46:55;17.70;;;9.90;;
48897;SDS011;34713;50.038;20.000;2023-09-07T22:49:43;16.20;;;9.90;;
48897;SDS011;34713;50.038;20.000;2023-09-07T23:12:43;15.90;;;10.10;;
48897;SDS011;34713;50.038;20.000;2023-09-07T23:15:12;14.40;;;10.40;;
48897;SDS011;34713;50.038;20.000;2023-09-07T23:18:03;16.20;;;9.90;;
48897;SDS011;34713;50.038;20.000;2023-09-07T23:23:19;20.00;;;10.00;;
48897;SDS011;34713;50.038;20.000;2023-09-07T23:26:17;14.70;;;9.90;;
48897;SDS011;34713;50.038;20.000;2023-09-07T23:28:49;16.40;;;9.60;;
48897;SDS011;34713;50.038;20.000;2023-09-07T23:31:52;16.50;;;9.50;;
48897;SDS011;34713;50.038;20.000;2023-09-07T23:34:19;16.40;;;9.80;;
48897;SDS011;34713;50.038;20.000;2023-09-07T23:37:01;14.40;;;9.60;;
48897;SDS011;34713;50.038;20.000;2023-09-07T23:39:50;14.70;;;10.90;;
48897;SDS011;34713;50.038;20.000;2023-09-07T23:53:02;16.20;;;10.60;;
48897;SDS011;34713;50.038;20.000;2023-09-07T23:55:34;12.40;;;10.00;;
48897;SDS011;34713;50.038;20.000;2023-09-07T23:58:41;14.90;;;10.40;;
